createdAt,value
2019-01-29T00:03:00.425Z,53.73
2019-01-29T00:06:04.919Z,57.60
2019-01-29T00:09:08.713Z,54.73
2019-01-29T00:12:12.441Z,54.33
2019-01-29T00:15:16.053Z,53.53
2019-01-29T00:18:19.754Z,50.57
2019-01-29T00:21:23.383Z,52.73
2019-01-29T00:24:27.095Z,47.50
2019-01-29T00:27:30.752Z,47.73
2019-01-29T00:30:34.434Z,42.97
2019-01-29T00:33:38.077Z,39.73
2019-01-29T00:36:42.187Z,37.13
2019-01-29T00:39:46.335Z,31.30
2019-01-29T00:42:50.036Z,33.50
2019-01-29T00:45:53.843Z,36.60
2019-01-29T00:48:57.767Z,33.53
2019-01-29T00:52:03.025Z,31.63
2019-01-29T00:55:09.948Z,35.10
2019-01-29T00:58:13.624Z,35.30
2019-01-29T01:01:17.214Z,33.47
2019-01-29T01:04:20.833Z,38.93
2019-01-29T01:07:24.582Z,30.70
2019-01-29T01:10:28.933Z,33.50
2019-01-29T01:13:32.638Z,34.87
2019-01-29T01:16:36.193Z,30.70
2019-01-29T01:19:39.846Z,34.60
2019-01-29T01:22:50.619Z,35.03
2019-01-29T01:25:48.893Z,30.23
2019-01-29T01:28:52.604Z,29.17
2019-01-29T01:31:56.224Z,23.47
2019-01-29T01:34:59.936Z,26.97
2019-01-29T01:38:03.564Z,26.40
2019-01-29T01:41:07.243Z,24.27
2019-01-29T01:44:10.893Z,24.37
2019-01-29T01:47:14.563Z,21.03
2019-01-29T01:50:18.208Z,21.97
2019-01-29T01:53:21.893Z,26.60
2019-01-29T01:56:25.563Z,25.17
2019-01-29T01:59:29.235Z,25.27
2019-01-29T02:02:32.812Z,24.13
2019-01-29T02:05:36.485Z,26.03
2019-01-29T02:08:41.142Z,24.67
2019-01-29T02:11:44.775Z,22.47
2019-01-29T02:14:48.473Z,26.47
2019-01-29T02:17:52.054Z,25.40
2019-01-29T02:20:55.718Z,27.27
2019-01-29T02:23:59.370Z,26.40
2019-01-29T02:27:02.992Z,28.87
2019-01-29T02:30:15.390Z,22.53
2019-01-29T02:33:19.021Z,25.27
2019-01-29T02:36:22.697Z,22.63
2019-01-29T02:39:26.336Z,24.37
2019-01-29T02:42:30.032Z,25.03
2019-01-29T02:45:33.683Z,25.30
2019-01-29T02:48:37.329Z,22.77
2019-01-29T02:51:40.981Z,23.00
2019-01-29T02:54:44.656Z,22.20
2019-01-29T02:57:48.314Z,19.13
2019-01-29T03:00:52.036Z,28.87
2019-01-29T03:07:39.004Z,19.20
2019-01-29T03:10:42.664Z,17.50
2019-01-29T03:13:46.336Z,23.20
2019-01-29T03:16:50.029Z,20.40
2019-01-29T03:19:53.728Z,18.70
2019-01-29T03:22:57.438Z,15.40
2019-01-29T03:26:01.113Z,18.60
2019-01-29T03:29:04.824Z,21.47
2019-01-29T03:32:08.430Z,16.93
2019-01-29T03:35:12.083Z,17.40
2019-01-29T03:38:15.765Z,16.43
2019-01-29T03:41:19.363Z,15.90
2019-01-29T03:44:23.018Z,16.07
2019-01-29T03:47:26.696Z,13.63
2019-01-29T03:50:30.360Z,14.93
2019-01-29T03:53:38.177Z,13.50
2019-01-29T03:56:39.353Z,13.57
2019-01-29T03:59:42.982Z,14.33
2019-01-29T04:02:46.644Z,13.73
2019-01-29T04:05:50.263Z,15.37
2019-01-29T04:08:53.909Z,9.73
2019-01-29T04:11:57.573Z,12.63
2019-01-29T04:15:01.202Z,9.40
2019-01-29T04:18:04.907Z,11.93
2019-01-29T04:21:08.654Z,9.80
2019-01-29T04:24:12.333Z,6.93
2019-01-29T04:27:15.989Z,12.03
2019-01-29T04:30:21.464Z,14.03
2019-01-29T04:33:25.132Z,14.83
2019-01-29T04:36:28.784Z,14.67
2019-01-29T04:39:32.399Z,13.27
2019-01-29T04:42:36.051Z,10.60
2019-01-29T04:45:39.736Z,16.30
2019-01-29T04:48:43.388Z,5.57
2019-01-29T04:51:47.055Z,15.47
2019-01-29T04:54:50.728Z,13.67
2019-01-29T04:57:54.424Z,16.10
2019-01-29T05:00:58.084Z,11.30
2019-01-29T05:04:01.764Z,19.43
2019-01-29T05:07:05.402Z,21.20
2019-01-29T05:10:14.012Z,16.03
2019-01-29T05:13:19.034Z,14.80
2019-01-29T05:16:22.654Z,19.00
2019-01-29T05:19:26.289Z,19.93
2019-01-29T05:22:29.996Z,13.90
2019-01-29T05:25:33.763Z,21.10
2019-01-29T05:28:37.443Z,25.20
2019-01-29T05:31:41.142Z,24.37
2019-01-29T05:34:44.778Z,23.40
2019-01-29T05:37:48.418Z,27.00
2019-01-29T05:40:52.013Z,21.10
2019-01-29T05:43:55.677Z,26.40
2019-01-29T05:46:59.327Z,22.27
2019-01-29T05:50:03.018Z,19.53
2019-01-29T05:53:06.661Z,25.20
2019-01-29T05:56:10.319Z,15.97
2019-01-29T05:59:13.963Z,16.83
2019-01-29T06:02:17.661Z,15.87
2019-01-29T06:05:21.247Z,13.33
2019-01-29T06:08:24.913Z,18.50
2019-01-29T06:11:28.516Z,15.33
2019-01-29T06:14:32.188Z,14.87
2019-01-29T06:17:35.830Z,11.73
2019-01-29T06:20:39.451Z,15.57
2019-01-29T06:23:43.043Z,10.40
2019-01-29T06:26:46.645Z,13.73
2019-01-29T06:29:50.292Z,11.37
2019-01-29T06:32:53.992Z,13.77
2019-01-29T06:35:57.620Z,15.00
2019-01-29T06:39:01.315Z,17.40
2019-01-29T06:42:05.082Z,19.97
2019-01-29T06:45:14.002Z,19.90
2019-01-29T06:48:17.620Z,9.43
2019-01-29T06:51:21.295Z,18.03
2019-01-29T06:54:24.833Z,19.57
2019-01-29T06:57:28.522Z,19.97
2019-01-29T07:00:32.761Z,18.83
2019-01-29T07:03:36.433Z,21.73
2019-01-29T07:06:40.116Z,23.20
2019-01-29T07:09:43.862Z,20.47
2019-01-29T07:12:47.543Z,21.03
2019-01-29T07:15:52.931Z,19.47
2019-01-29T07:18:58.170Z,24.13
2019-01-29T07:22:02.413Z,22.10
2019-01-29T07:25:08.322Z,23.13
2019-01-29T07:28:13.399Z,26.73
2019-01-29T07:31:17.139Z,19.13
2019-01-29T07:34:20.773Z,24.83
2019-01-29T07:37:24.417Z,22.87
2019-01-29T07:40:28.113Z,16.87
2019-01-29T07:43:31.756Z,23.07
2019-01-29T07:46:35.432Z,22.63
2019-01-29T07:49:38.987Z,23.83
2019-01-29T07:52:42.723Z,24.90
2019-01-29T07:55:46.371Z,28.63
2019-01-29T07:58:50.043Z,18.87
2019-01-29T08:01:53.617Z,19.20
2019-01-29T08:04:57.295Z,23.37
2019-01-29T08:08:00.933Z,24.77
2019-01-29T08:11:04.615Z,23.10
2019-01-29T08:14:08.275Z,22.43
2019-01-29T08:17:11.927Z,22.63
2019-01-29T08:20:16.713Z,22.53
2019-01-29T08:23:20.340Z,25.80
2019-01-29T08:26:24.033Z,23.90
2019-01-29T08:29:27.675Z,24.37
2019-01-29T08:32:31.365Z,24.30
2019-01-29T08:35:35.023Z,24.90
2019-01-29T08:38:38.712Z,25.37
2019-01-29T08:41:42.373Z,58.20
2019-01-29T08:44:46.054Z,52.20
2019-01-29T08:47:49.714Z,49.17
2019-01-29T08:50:53.316Z,59.40
2019-01-29T08:53:56.972Z,55.37
2019-01-29T08:57:00.619Z,53.90
2019-01-29T09:00:07.542Z,48.17
2019-01-29T09:03:11.189Z,48.50
2019-01-29T09:06:14.871Z,52.20
2019-01-29T09:09:18.503Z,46.37
2019-01-29T09:12:22.262Z,21.47
2019-01-29T09:15:25.908Z,15.77
2019-01-29T09:18:29.586Z,19.00
2019-01-29T09:21:33.241Z,15.60
2019-01-29T09:24:36.813Z,17.83
2019-01-29T09:27:40.443Z,20.97
2019-01-29T09:30:44.033Z,17.53
2019-01-29T09:33:47.723Z,15.37
2019-01-29T09:36:51.416Z,18.63
2019-01-29T09:39:55.083Z,15.97
2019-01-29T09:42:58.693Z,15.33
2019-01-29T09:46:02.387Z,15.60
2019-01-29T09:49:06.073Z,16.33
2019-01-29T09:52:09.721Z,19.83
2019-01-29T09:55:15.913Z,17.57
2019-01-29T09:58:19.504Z,17.30
2019-01-29T10:01:23.176Z,18.77
2019-01-29T10:04:26.834Z,20.00
2019-01-29T10:07:30.556Z,21.80
2019-01-29T10:10:34.155Z,20.93
2019-01-29T10:13:37.848Z,20.70
2019-01-29T10:16:41.424Z,24.27
2019-01-29T10:19:45.112Z,26.07
2019-01-29T10:22:48.675Z,24.37
2019-01-29T10:25:52.356Z,19.23
2019-01-29T10:28:55.995Z,22.13
2019-01-29T10:31:59.711Z,18.93
2019-01-29T10:35:03.812Z,19.20
2019-01-29T10:38:09.782Z,11.37
2019-01-29T10:41:13.400Z,9.07
2019-01-29T10:44:16.945Z,11.67
2019-01-29T10:47:20.566Z,19.13
2019-01-29T10:50:29.063Z,14.17
2019-01-29T10:53:32.813Z,17.83
2019-01-29T10:56:36.494Z,20.40
2019-01-29T10:59:40.154Z,21.27
2019-01-29T11:02:43.917Z,22.90
2019-01-29T11:05:47.726Z,20.07
2019-01-29T11:08:51.339Z,24.10
2019-01-29T11:11:55.059Z,22.07
2019-01-29T11:15:01.877Z,24.10
2019-01-29T11:18:08.732Z,27.87
2019-01-29T11:21:13.982Z,23.80
2019-01-29T11:24:17.913Z,28.33
2019-01-29T11:27:21.610Z,32.97
2019-01-29T11:30:27.402Z,23.93
2019-01-29T11:33:31.091Z,29.63
2019-01-29T11:36:34.732Z,34.80
2019-01-29T11:39:38.436Z,36.40
2019-01-29T11:42:42.105Z,36.37
2019-01-29T11:45:48.454Z,31.23
2019-01-29T11:48:52.085Z,32.13
2019-01-29T11:51:55.760Z,38.67
2019-01-29T11:54:59.447Z,37.93
2019-01-29T11:58:03.112Z,39.37
2019-01-29T12:01:07.547Z,40.27
2019-01-29T12:04:11.200Z,43.83
2019-01-29T12:07:14.762Z,45.40
2019-01-29T12:10:18.455Z,48.87
2019-01-29T12:13:22.031Z,47.07
2019-01-29T12:16:25.713Z,47.10
2019-01-29T12:19:29.345Z,52.37
2019-01-29T12:22:33.011Z,51.63
2019-01-29T12:25:36.647Z,50.57
2019-01-29T12:28:40.427Z,49.47
2019-01-29T12:31:44.045Z,49.97
2019-01-29T12:34:47.710Z,50.50
2019-01-29T12:37:51.417Z,50.57
2019-01-29T12:40:55.057Z,43.07
2019-01-29T12:43:58.672Z,37.03
2019-01-29T12:47:02.696Z,39.37
2019-01-29T12:50:09.665Z,38.50
2019-01-29T12:53:14.878Z,33.33
2019-01-29T12:56:21.568Z,33.17
2019-01-29T12:59:23.878Z,33.97
2019-01-29T13:02:36.154Z,30.73
2019-01-29T13:05:39.872Z,33.87
2019-01-29T13:08:43.759Z,28.73
2019-01-29T13:11:47.614Z,32.53
2019-01-29T13:14:51.554Z,27.40
2019-01-29T13:17:56.701Z,31.23
2019-01-29T13:21:00.442Z,32.00
2019-01-29T13:24:04.019Z,32.50
2019-01-29T13:27:07.896Z,32.23
2019-01-29T13:30:35.290Z,36.47
2019-01-29T13:33:39.094Z,37.57
2019-01-29T13:36:42.740Z,40.83
2019-01-29T13:39:46.446Z,38.00
2019-01-29T13:42:50.197Z,37.97
2019-01-29T13:45:53.980Z,43.37
2019-01-29T13:48:57.624Z,42.53
2019-01-29T13:52:01.322Z,40.20
2019-01-29T13:55:07.909Z,40.50
2019-01-29T13:58:11.615Z,46.47
2019-01-29T14:01:15.391Z,45.93
2019-01-29T14:04:19.136Z,47.20
2019-01-29T14:07:23.204Z,44.40
2019-01-29T14:10:26.891Z,45.53
2019-01-29T14:13:32.105Z,42.37
2019-01-29T14:16:35.899Z,40.67
2019-01-29T14:19:39.671Z,35.73
2019-01-29T14:22:43.380Z,35.90
2019-01-29T14:25:46.862Z,37.50
2019-01-29T14:28:51.377Z,37.63
2019-01-29T14:31:54.888Z,42.63
2019-01-29T14:34:58.549Z,41.77
2019-01-29T14:38:10.987Z,37.00
2019-01-29T14:41:14.633Z,39.90
2019-01-29T14:44:18.294Z,42.93
2019-01-29T14:47:22.081Z,40.37
2019-01-29T14:50:26.008Z,36.97
2019-01-29T14:53:29.665Z,42.17
2019-01-29T14:56:33.321Z,41.37
2019-01-29T14:59:37.018Z,42.27
2019-01-29T15:02:40.684Z,46.60
2019-01-29T15:05:44.336Z,45.67
2019-01-29T15:08:48.025Z,50.53
2019-01-29T15:11:51.733Z,42.50
2019-01-29T15:14:55.355Z,42.97
2019-01-29T15:18:00.535Z,40.80
2019-01-29T15:21:04.228Z,37.60
2019-01-29T15:24:07.932Z,47.90
2019-01-29T15:27:11.615Z,41.57
2019-01-29T15:30:28.121Z,42.53
2019-01-29T15:33:32.532Z,39.20
2019-01-29T15:36:36.258Z,42.87
2019-01-29T15:39:39.953Z,38.83
2019-01-29T15:42:43.592Z,74.13
2019-01-29T15:45:47.272Z,44.57
2019-01-29T15:48:50.912Z,43.87
2019-01-29T15:51:54.543Z,57.97
2019-01-29T15:54:58.264Z,47.00
2019-01-29T15:58:01.877Z,49.97
2019-01-29T16:01:05.597Z,50.97
2019-01-29T16:04:09.306Z,47.63
2019-01-29T16:07:12.937Z,57.30
2019-01-29T16:10:20.064Z,64.83
2019-01-29T16:13:23.775Z,74.33
2019-01-29T16:16:27.504Z,85.93
2019-01-29T16:19:32.628Z,75.67
2019-01-29T16:22:36.312Z,76.10
2019-01-29T16:25:40.007Z,71.40
2019-01-29T16:28:43.643Z,70.83
2019-01-29T16:31:47.357Z,67.67
2019-01-29T16:34:51.013Z,69.17
2019-01-29T16:37:54.694Z,66.80
2019-01-29T16:41:00.533Z,81.77
2019-01-29T16:44:04.166Z,90.70
2019-01-29T16:47:08.374Z,84.53
2019-01-29T16:50:15.283Z,78.50
2019-01-29T16:53:18.953Z,74.60
2019-01-29T16:56:22.648Z,70.40
2019-01-29T16:59:26.527Z,71.53
2019-01-29T17:02:30.168Z,76.47
2019-01-29T17:05:33.849Z,72.53
2019-01-29T17:08:37.563Z,132.03
2019-01-29T17:11:41.783Z,149.93
2019-01-29T17:14:45.574Z,120.10
2019-01-29T17:17:49.270Z,151.67
2019-01-29T17:27:40.245Z,111.77
2019-01-29T17:30:45.116Z,93.60
2019-01-29T17:33:48.836Z,103.07
2019-01-29T17:36:52.503Z,92.80
2019-01-29T17:39:56.206Z,91.57
2019-01-29T17:42:59.874Z,90.60
2019-01-29T17:46:03.675Z,76.67
2019-01-29T17:49:07.404Z,84.60
2019-01-29T17:52:11.070Z,86.93
2019-01-29T17:55:16.196Z,67.33
2019-01-29T17:58:19.868Z,63.80
2019-01-29T18:01:23.572Z,61.20
2019-01-29T18:04:27.570Z,66.33
2019-01-29T18:07:31.192Z,63.83
2019-01-29T18:10:34.893Z,74.30
2019-01-29T18:13:38.554Z,118.95
2019-01-29T18:16:42.276Z,103.07
2019-01-29T18:19:46.151Z,92.77
2019-01-29T18:22:49.833Z,64.13
2019-01-29T18:25:53.729Z,80.30
2019-01-29T18:28:57.382Z,69.40
2019-01-29T18:32:01.101Z,76.43
2019-01-29T18:35:08.381Z,70.80
2019-01-29T18:38:12.201Z,61.50
2019-01-29T18:41:15.904Z,60.10
2019-01-29T18:44:19.592Z,60.20
2019-01-29T18:47:23.394Z,62.50
2019-01-29T18:50:27.035Z,62.90
2019-01-29T18:53:31.011Z,84.97
2019-01-29T18:56:36.572Z,73.50
2019-01-29T18:59:40.364Z,74.77
2019-01-29T19:02:44.022Z,98.07
2019-01-29T19:05:47.753Z,108.67
2019-01-29T19:08:51.427Z,94.33
2019-01-29T19:11:55.343Z,63.03
2019-01-29T19:14:59.012Z,67.93
2019-01-29T19:18:02.772Z,70.67
2019-01-29T19:21:06.564Z,49.17
2019-01-29T19:24:10.423Z,49.43
2019-01-29T19:27:14.250Z,57.90
2019-01-29T19:30:26.689Z,45.40
2019-01-29T19:33:30.339Z,50.80
2019-01-29T19:36:34.039Z,51.53
2019-01-29T19:39:37.890Z,41.93
2019-01-29T19:42:41.561Z,49.90
2019-01-29T19:45:45.513Z,51.10
2019-01-29T19:48:49.162Z,53.57
2019-01-29T19:51:52.978Z,59.07
2019-01-29T19:54:56.631Z,90.47
2019-01-29T19:58:08.785Z,71.87
2019-01-29T20:01:06.643Z,76.63
2019-01-29T20:04:10.307Z,70.73
2019-01-29T20:07:14.043Z,102.53
2019-01-29T20:10:19.543Z,91.97
2019-01-29T20:13:23.417Z,102.27
2019-01-29T20:16:27.087Z,79.00
2019-01-29T20:19:30.787Z,74.20
2019-01-29T20:22:34.510Z,77.50
2019-01-29T20:25:38.198Z,86.90
2019-01-29T20:28:42.790Z,84.47
2019-01-29T20:31:46.546Z,80.17
2019-01-29T20:34:50.212Z,91.30
2019-01-29T20:37:54.718Z,80.37
2019-01-29T20:40:58.620Z,77.60
2019-01-29T20:44:02.302Z,91.20
2019-01-29T20:47:06.100Z,90.63
2019-01-29T20:50:18.407Z,104.07
2019-01-29T20:53:23.693Z,90.43
2019-01-29T20:56:27.630Z,83.30
2019-01-29T20:59:31.334Z,110.37
2019-01-29T21:02:35.024Z,111.47
2019-01-29T21:05:38.791Z,101.27
2019-01-29T21:08:42.500Z,85.67
2019-01-29T21:11:46.146Z,79.20
2019-01-29T21:14:49.842Z,68.77
2019-01-29T21:17:53.574Z,68.63
2019-01-29T21:20:57.470Z,65.87
2019-01-29T21:24:02.284Z,65.53
2019-01-29T21:27:05.961Z,96.17
2019-01-29T21:30:12.714Z,116.20
2019-01-29T21:33:16.481Z,181.23
2019-01-29T21:36:20.119Z,159.83
2019-01-29T21:39:23.869Z,161.97
2019-01-29T21:42:27.981Z,147.10
2019-01-29T21:45:31.642Z,131.13
2019-01-29T21:48:35.292Z,121.40
2019-01-29T21:51:39.148Z,105.43
2019-01-29T21:54:42.792Z,86.20
2019-01-29T21:57:46.390Z,71.27
2019-01-29T22:00:50.071Z,81.27
2019-01-29T22:03:53.690Z,78.70
2019-01-29T22:06:57.384Z,102.27
2019-01-29T22:10:00.976Z,84.10
2019-01-29T22:13:05.021Z,72.67
2019-01-29T22:16:08.711Z,86.47
2019-01-29T22:19:12.372Z,100.73
2019-01-29T22:22:16.042Z,96.33
2019-01-29T22:25:22.060Z,115.57
2019-01-29T22:28:26.229Z,130.80
2019-01-29T22:31:29.912Z,128.20
2019-01-29T22:34:33.549Z,105.03
2019-01-29T22:37:37.237Z,111.37
2019-01-29T22:40:40.958Z,120.57
2019-01-29T22:43:44.685Z,128.23
2019-01-29T22:46:48.384Z,126.90
2019-01-29T22:49:52.057Z,119.50
2019-01-29T22:52:55.774Z,97.97
2019-01-29T22:55:59.418Z,113.53
2019-01-29T22:59:03.112Z,114.53
2019-01-29T23:02:06.794Z,117.17
2019-01-29T23:05:10.667Z,98.57
2019-01-29T23:08:14.355Z,97.90
2019-01-29T23:11:18.300Z,90.83
2019-01-29T23:14:21.942Z,91.80
2019-01-29T23:17:25.613Z,83.53
2019-01-29T23:20:29.241Z,72.67
2019-01-29T23:23:34.156Z,84.57
2019-01-29T23:26:37.833Z,81.67
2019-01-29T23:29:43.723Z,90.27
2019-01-29T23:32:46.820Z,73.00
2019-01-29T23:35:50.454Z,77.47
2019-01-29T23:38:54.145Z,74.97
2019-01-29T23:41:57.835Z,80.40
2019-01-29T23:45:01.499Z,81.73
2019-01-29T23:48:05.142Z,72.37
2019-01-29T23:51:08.795Z,77.80
2019-01-29T23:54:12.705Z,75.40
2019-01-29T23:57:16.293Z,77.80
